Phnom Penh, Cambodia
Current Conditions -  °F | °C
As of 8:00 PM on Friday 24 Oct 2014 (Local Time) from VDPP Reporting Station
Scattered Clouds Scattered Clouds  
Wind Chill: 84°   Ceiling: Unl
Heat Index: 94°   Visibility: 5mi
Dew Point: 77°   Wind: 1mph
Humidity: 79%   Direction: 250°WSW
Pressure: 29.8"   Gusts: NA
Location:  11.56°N, 104.92°E
Report Text: VDPP 241300Z 25001KT 8000 FEW015 SCT040 29/25 Q1009
Loading
Personal Weather Stations






























Interactive Weather Map New forecast layout! Learn more

10-Day Weather Forecast

Advertisements
Track Severe Weather on mobile